createdAt,value
2023-07-05T00:01:50.443Z,59.32
2023-07-05T00:04:52.889Z,59.42
2023-07-05T00:07:55.341Z,59.27
2023-07-05T00:11:08.885Z,59.07
2023-07-05T00:14:11.353Z,59.20
2023-07-05T00:17:13.786Z,58.93
2023-07-05T00:20:17.069Z,59.01
2023-07-05T00:23:19.444Z,59.29
2023-07-05T00:26:21.873Z,59.39
2023-07-05T00:29:24.246Z,59.08
2023-07-05T00:32:26.789Z,59.36
2023-07-05T00:35:29.178Z,59.34
2023-07-05T00:38:31.885Z,59.22
2023-07-05T00:41:34.310Z,59.24
2023-07-05T00:44:36.772Z,59.42
2023-07-05T00:47:41.448Z,59.02
2023-07-05T00:50:47.438Z,59.54
2023-07-05T00:53:50.220Z,59.40
2023-07-05T00:57:01.850Z,59.44
2023-07-05T01:00:09.076Z,59.39
2023-07-05T01:03:13.996Z,59.31
2023-07-05T01:06:16.396Z,59.41
2023-07-05T01:09:21.083Z,59.70
2023-07-05T01:12:36.901Z,59.53
2023-07-05T01:15:49.831Z,59.20
2023-07-05T01:19:04.704Z,59.52
2023-07-05T01:22:10.281Z,59.26
2023-07-05T01:25:36.578Z,59.45
2023-07-05T01:29:16.810Z,59.40
2023-07-05T01:32:30.475Z,59.53
2023-07-05T01:35:37.401Z,59.33
2023-07-05T01:38:39.770Z,59.55
2023-07-05T01:41:43.061Z,59.37
2023-07-05T01:44:46.014Z,59.51
2023-07-05T01:48:05.834Z,59.53
2023-07-05T01:51:10.291Z,59.34
2023-07-05T01:54:40.741Z,59.59
2023-07-05T01:57:52.986Z,59.49
2023-07-05T02:00:57.146Z,59.22
2023-07-05T02:03:59.896Z,59.39
2023-07-05T02:07:05.308Z,59.39
2023-07-05T02:10:08.041Z,59.50
2023-07-05T02:13:12.453Z,59.54
2023-07-05T02:16:14.976Z,59.45
2023-07-05T02:19:18.354Z,59.54
2023-07-05T02:22:20.799Z,59.39
2023-07-05T02:25:23.492Z,59.38
2023-07-05T02:28:25.926Z,59.74
2023-07-05T02:31:29.730Z,59.71
2023-07-05T02:34:32.233Z,59.79
2023-07-05T02:37:36.294Z,59.70
2023-07-05T02:40:38.696Z,59.49
2023-07-05T02:43:41.074Z,59.54
2023-07-05T02:46:43.530Z,59.65
2023-07-05T02:49:46.029Z,59.54
2023-07-05T02:52:48.731Z,59.76
2023-07-05T02:55:52.408Z,59.75
2023-07-05T02:58:54.956Z,59.70
2023-07-05T03:01:57.453Z,59.65
2023-07-05T03:05:07.510Z,59.75
2023-07-05T03:08:10.358Z,59.56
2023-07-05T03:11:12.749Z,59.62
2023-07-05T03:14:15.193Z,59.32
2023-07-05T03:17:17.654Z,59.56
2023-07-05T03:20:20.982Z,59.36
2023-07-05T03:23:23.549Z,59.52
2023-07-05T03:26:27.203Z,59.42
2023-07-05T03:29:30.959Z,59.43
2023-07-05T03:32:35.094Z,59.46
2023-07-05T03:35:37.485Z,59.43
2023-07-05T03:38:40.369Z,59.16
2023-07-05T03:41:42.740Z,59.58
2023-07-05T03:44:45.291Z,59.21
2023-07-05T03:47:47.714Z,59.24
2023-07-05T03:50:50.278Z,59.53
2023-07-05T03:53:57.848Z,59.20
2023-07-05T03:57:00.201Z,58.93
2023-07-05T04:00:02.642Z,59.04
2023-07-05T04:03:14.869Z,59.02
2023-07-05T04:06:18.246Z,58.94
2023-07-05T04:09:20.611Z,58.90
2023-07-05T04:12:23.002Z,58.98
2023-07-05T04:15:25.458Z,58.76
2023-07-05T04:18:28.972Z,58.60
2023-07-05T04:21:31.401Z,58.69
2023-07-05T04:24:33.839Z,58.60
2023-07-05T04:27:36.726Z,58.60
2023-07-05T04:30:39.072Z,58.43
2023-07-05T04:33:41.465Z,58.44
2023-07-05T04:36:43.809Z,58.41
2023-07-05T04:39:46.362Z,58.30
2023-07-05T04:42:49.158Z,58.42
2023-07-05T04:45:52.624Z,57.98
2023-07-05T04:48:55.011Z,58.01
2023-07-05T04:51:57.382Z,57.85
2023-07-05T04:54:59.819Z,57.65
2023-07-05T04:58:04.918Z,57.68
2023-07-05T05:01:09.197Z,57.29
2023-07-05T05:04:11.916Z,57.22
2023-07-05T05:07:14.542Z,57.10
2023-07-05T05:10:17.008Z,56.56
2023-07-05T05:13:19.715Z,56.58
2023-07-05T05:16:22.147Z,56.71
2023-07-05T05:19:24.576Z,56.56
2023-07-05T05:22:26.995Z,56.46
2023-07-05T05:25:29.399Z,56.25
2023-07-05T05:28:31.946Z,56.15
2023-07-05T05:31:34.369Z,56.24
2023-07-05T05:34:36.957Z,55.68
2023-07-05T05:37:40.282Z,55.96
2023-07-05T05:40:42.670Z,55.97
2023-07-05T05:43:46.296Z,55.31
2023-07-05T05:46:48.749Z,55.59
2023-07-05T05:49:51.193Z,55.23
2023-07-05T05:52:53.577Z,55.37
2023-07-05T05:55:57.600Z,55.37
2023-07-05T05:58:59.986Z,55.73
2023-07-05T06:02:02.387Z,54.74
2023-07-05T06:05:05.108Z,55.80
2023-07-05T06:08:07.500Z,55.86
2023-07-05T06:11:09.916Z,57.70
2023-07-05T06:14:12.296Z,57.19
2023-07-05T06:17:14.641Z,58.63
2023-07-05T06:20:17.567Z,57.74
2023-07-05T06:23:20.518Z,58.15
2023-07-05T06:26:24.321Z,57.93
2023-07-05T06:29:26.837Z,58.26
2023-07-05T06:32:29.512Z,57.78
2023-07-05T06:35:32.479Z,58.10
2023-07-05T06:38:35.075Z,57.59
2023-07-05T06:41:37.484Z,56.96
2023-07-05T06:44:39.938Z,56.47
2023-07-05T06:47:42.779Z,55.68
2023-07-05T06:50:45.238Z,56.57
2023-07-05T06:53:49.780Z,55.87
2023-07-05T06:56:52.536Z,54.61
2023-07-05T06:59:54.937Z,55.02
2023-07-05T07:02:58.024Z,54.92
2023-07-05T07:06:00.697Z,54.73
2023-07-05T07:09:05.034Z,54.41
2023-07-05T07:12:08.819Z,54.64
2023-07-05T07:15:11.233Z,53.09
2023-07-05T07:18:13.633Z,52.79
2023-07-05T07:21:18.091Z,52.69
2023-07-05T07:24:20.710Z,52.83
2023-07-05T07:27:23.157Z,52.16
2023-07-05T07:30:26.858Z,51.94
2023-07-05T07:33:29.296Z,51.66
2023-07-05T07:36:33.108Z,51.03
2023-07-05T07:39:35.506Z,51.83
2023-07-05T07:42:37.940Z,50.84
2023-07-05T07:45:40.451Z,51.05
2023-07-05T07:48:44.173Z,50.98
2023-07-05T07:51:46.697Z,50.66
2023-07-05T07:54:49.233Z,51.01
2023-07-05T07:57:51.683Z,51.28
2023-07-05T08:00:54.537Z,51.00
2023-07-05T08:03:58.564Z,50.82
2023-07-05T08:07:02.460Z,51.45
2023-07-05T08:10:05.382Z,50.72
2023-07-05T08:13:07.754Z,50.62
2023-07-05T08:16:10.196Z,51.39
2023-07-05T08:19:12.745Z,50.94
2023-07-05T08:22:16.619Z,50.16
2023-07-05T08:25:20.105Z,51.23
2023-07-05T08:28:23.541Z,50.78
2023-07-05T08:31:26.194Z,52.21
2023-07-05T08:34:28.841Z,51.64
2023-07-05T08:37:31.520Z,51.32
2023-07-05T08:40:39.423Z,51.52
2023-07-05T08:43:45.794Z,51.49
2023-07-05T08:46:52.188Z,51.81
2023-07-05T08:50:17.823Z,52.14
2023-07-05T08:53:25.021Z,51.88
2023-07-05T08:56:37.707Z,52.47
2023-07-05T08:59:48.932Z,50.12
2023-07-05T09:02:51.748Z,49.79
2023-07-05T09:06:00.556Z,50.25
2023-07-05T09:09:27.294Z,48.92
2023-07-05T09:12:38.626Z,49.72
2023-07-05T09:16:07.388Z,50.81
2023-07-05T09:19:42.105Z,50.36
2023-07-05T09:22:45.275Z,50.10
2023-07-05T09:25:55.755Z,50.15
2023-07-05T09:29:31.765Z,50.31
2023-07-05T09:32:37.422Z,50.77
2023-07-05T09:35:44.583Z,50.83
2023-07-05T09:38:47.758Z,50.98
2023-07-05T09:41:51.639Z,50.74
2023-07-05T09:44:54.070Z,49.39
2023-07-05T09:48:00.606Z,49.67
2023-07-05T09:51:05.258Z,48.89
2023-07-05T09:54:12.054Z,49.73
2023-07-05T09:57:24.118Z,50.02
2023-07-05T10:00:35.609Z,50.42
2023-07-05T10:03:45.875Z,50.81
2023-07-05T10:06:49.201Z,49.65
2023-07-05T10:10:17.828Z,50.23
2023-07-05T10:13:23.522Z,50.47
2023-07-05T10:16:25.996Z,50.05
2023-07-05T10:19:39.745Z,49.77
2023-07-05T10:22:42.126Z,49.14
2023-07-05T10:25:45.710Z,49.47
2023-07-05T10:28:48.145Z,50.26
2023-07-05T10:31:59.347Z,49.38
2023-07-05T10:35:02.961Z,49.17
2023-07-05T10:38:20.089Z,49.43
2023-07-05T10:41:33.099Z,48.98
2023-07-05T10:44:36.439Z,49.72
2023-07-05T10:47:39.846Z,49.03
2023-07-05T10:50:42.741Z,49.18
2023-07-05T10:53:49.618Z,49.12
2023-07-05T10:56:52.277Z,49.71
2023-07-05T11:00:29.645Z,48.33
2023-07-05T11:03:57.164Z,48.41
2023-07-05T11:07:07.636Z,48.88
2023-07-05T11:10:29.731Z,48.80
2023-07-05T11:13:32.263Z,48.79
2023-07-05T11:16:35.202Z,49.00
2023-07-05T11:19:37.653Z,49.34
2023-07-05T11:22:45.809Z,48.50
2023-07-05T11:26:00.144Z,47.14
2023-07-05T11:29:31.654Z,47.22
2023-07-05T11:33:13.624Z,47.55
2023-07-05T11:36:29.984Z,47.05
2023-07-05T11:39:39.126Z,48.32
2023-07-05T11:42:41.600Z,48.98
2023-07-05T11:45:47.709Z,46.83
2023-07-05T11:48:50.775Z,46.21
2023-07-05T11:51:59.107Z,47.07
2023-07-05T11:55:15.029Z,47.21
2023-07-05T11:58:18.772Z,47.32
2023-07-05T12:01:28.475Z,47.36
2023-07-05T12:04:33.749Z,47.53
2023-07-05T12:07:36.998Z,46.04
2023-07-05T12:10:42.778Z,46.72
2023-07-05T12:13:45.199Z,47.96
2023-07-05T12:16:48.052Z,48.19
2023-07-05T12:19:51.277Z,48.04
2023-07-05T12:22:53.665Z,48.23
2023-07-05T12:25:58.537Z,48.03
2023-07-05T12:29:04.498Z,47.74
2023-07-05T12:32:09.208Z,47.91
2023-07-05T12:35:22.133Z,47.96
2023-07-05T12:38:24.536Z,48.05
2023-07-05T12:41:28.312Z,49.04
2023-07-05T12:44:32.177Z,49.40
2023-07-05T12:47:34.710Z,49.53
2023-07-05T12:50:37.106Z,49.85
2023-07-05T12:53:39.616Z,49.99
2023-07-05T12:56:45.891Z,49.96
2023-07-05T13:00:00.306Z,49.90
2023-07-05T13:03:15.804Z,50.18
2023-07-05T13:06:19.578Z,50.16
2023-07-05T13:09:30.150Z,50.08
2023-07-05T13:12:46.957Z,50.58
2023-07-05T13:15:49.455Z,50.72
2023-07-05T13:18:57.866Z,50.87
2023-07-05T13:22:17.123Z,50.63
2023-07-05T13:25:31.103Z,50.51
2023-07-05T13:28:33.649Z,50.73
2023-07-05T13:31:36.176Z,50.90
2023-07-05T13:34:38.868Z,50.91
2023-07-05T13:37:41.279Z,51.10
2023-07-05T13:40:59.395Z,50.82
2023-07-05T13:44:01.828Z,50.94
2023-07-05T13:47:06.041Z,51.19
2023-07-05T13:50:09.104Z,51.11
2023-07-05T13:53:20.013Z,51.05
2023-07-05T13:56:22.771Z,51.59
2023-07-05T13:59:25.266Z,51.54
2023-07-05T14:02:33.095Z,51.18
2023-07-05T14:05:35.732Z,51.24
2023-07-05T14:08:38.185Z,51.24
2023-07-05T14:11:42.663Z,51.70
2023-07-05T14:14:45.121Z,51.79
2023-07-05T14:17:47.641Z,51.47
2023-07-05T14:20:50.266Z,51.87
2023-07-05T14:23:52.856Z,51.36
2023-07-05T14:26:55.280Z,51.54
2023-07-05T14:29:58.534Z,51.96
2023-07-05T14:33:01.115Z,51.62
2023-07-05T14:36:03.888Z,51.74
2023-07-05T14:39:06.294Z,51.80
2023-07-05T14:42:10.758Z,52.04
2023-07-05T14:45:20.742Z,52.02
2023-07-05T14:48:23.120Z,51.70
2023-07-05T14:51:26.272Z,51.62
2023-07-05T14:54:29.596Z,51.68
2023-07-05T14:57:31.955Z,52.09
2023-07-05T15:00:34.778Z,51.85
2023-07-05T15:03:41.053Z,51.68
2023-07-05T15:06:43.474Z,51.79
2023-07-05T15:09:46.750Z,52.19
2023-07-05T15:12:49.138Z,52.11
2023-07-05T15:15:51.629Z,51.80
2023-07-05T15:18:54.286Z,52.17
2023-07-05T15:21:56.674Z,52.25
2023-07-05T15:25:00.444Z,51.98
2023-07-05T15:28:06.400Z,51.94
2023-07-05T15:31:10.700Z,51.89
2023-07-05T15:34:13.158Z,51.91
2023-07-05T15:37:15.531Z,52.31
2023-07-05T15:40:21.270Z,52.39
2023-07-05T15:43:24.596Z,52.15
2023-07-05T15:46:27.754Z,52.38
2023-07-05T15:49:30.147Z,52.19
2023-07-05T15:52:33.907Z,52.25
2023-07-05T15:55:36.303Z,52.18
2023-07-05T15:58:44.465Z,52.33
2023-07-05T16:01:53.146Z,52.42
2023-07-05T16:04:55.976Z,52.05
2023-07-05T16:07:58.595Z,52.25
2023-07-05T16:11:01.187Z,52.03
2023-07-05T16:14:03.837Z,52.47
2023-07-05T16:17:06.449Z,52.40
2023-07-05T16:20:09.328Z,52.47
2023-07-05T16:23:11.694Z,52.08
2023-07-05T16:26:14.140Z,52.12
2023-07-05T16:29:18.618Z,52.36
2023-07-05T16:32:21.116Z,52.50
2023-07-05T16:35:23.597Z,52.14
2023-07-05T16:38:26.368Z,52.32
2023-07-05T16:41:28.911Z,52.09
2023-07-05T16:44:31.313Z,52.56
2023-07-05T16:47:33.735Z,52.26
2023-07-05T16:50:36.274Z,52.18
2023-07-05T16:53:40.456Z,52.52
2023-07-05T16:56:42.956Z,52.82
2023-07-05T16:59:45.448Z,52.69
2023-07-05T17:02:47.956Z,52.64
2023-07-05T17:05:54.440Z,52.73
2023-07-05T17:08:56.841Z,52.83
2023-07-05T17:11:59.537Z,52.82
2023-07-05T17:15:01.947Z,52.78
2023-07-05T17:18:04.943Z,52.87
2023-07-05T17:21:09.953Z,52.37
2023-07-05T17:24:12.351Z,52.60
2023-07-05T17:27:14.792Z,52.92
2023-07-05T17:30:17.509Z,52.72
2023-07-05T17:33:19.891Z,52.90
2023-07-05T17:36:23.781Z,52.64
2023-07-05T17:39:26.285Z,52.53
2023-07-05T17:42:28.752Z,52.86
2023-07-05T17:45:31.159Z,52.98
2023-07-05T17:48:33.635Z,52.73
2023-07-05T17:51:36.122Z,53.02
2023-07-05T17:54:38.771Z,52.87
2023-07-05T17:57:41.138Z,52.88
2023-07-05T18:00:47.079Z,52.77
2023-07-05T18:03:49.499Z,52.91
2023-07-05T18:06:52.449Z,53.00
2023-07-05T18:09:54.905Z,53.08
2023-07-05T18:12:57.319Z,52.98
2023-07-05T18:16:05.021Z,53.09
2023-07-05T18:19:08.617Z,52.76
2023-07-05T18:22:11.070Z,52.84
2023-07-05T18:25:14.500Z,53.33
2023-07-05T18:28:17.182Z,52.90
2023-07-05T18:31:21.498Z,53.29
2023-07-05T18:34:24.230Z,53.38
2023-07-05T18:37:26.689Z,53.04
2023-07-05T18:40:29.228Z,53.14
2023-07-05T18:43:31.703Z,53.21
2023-07-05T18:46:34.094Z,53.00
2023-07-05T18:49:36.519Z,53.00
2023-07-05T18:52:39.610Z,53.43
2023-07-05T18:55:42.600Z,53.44
2023-07-05T18:58:45.187Z,53.26
2023-07-05T19:01:47.738Z,53.34
2023-07-05T19:04:50.227Z,53.12
2023-07-05T19:07:52.631Z,52.93
2023-07-05T19:10:59.095Z,52.93
2023-07-05T19:14:01.950Z,53.38
2023-07-05T19:17:05.811Z,53.45
2023-07-05T19:20:10.019Z,53.44
2023-07-05T19:23:12.426Z,53.17
2023-07-05T19:26:17.681Z,53.02
2023-07-05T19:29:22.127Z,53.60
2023-07-05T19:32:24.900Z,53.39
2023-07-05T19:35:27.734Z,53.45
2023-07-05T19:38:30.196Z,53.53
2023-07-05T19:41:33.096Z,53.31
2023-07-05T19:44:35.604Z,53.46
2023-07-05T19:47:38.075Z,53.24
2023-07-05T19:50:40.544Z,53.38
2023-07-05T19:53:42.996Z,53.47
2023-07-05T19:56:45.908Z,53.80
2023-07-05T19:59:48.281Z,53.73
2023-07-05T20:02:50.820Z,53.79
2023-07-05T20:05:53.369Z,53.75
2023-07-05T20:08:56.355Z,53.68
2023-07-05T20:11:58.991Z,53.80
2023-07-05T20:15:01.413Z,53.74
2023-07-05T20:18:05.001Z,53.73
2023-07-05T20:21:10.265Z,53.71
2023-07-05T20:24:15.256Z,54.36
2023-07-05T20:27:17.689Z,54.16
2023-07-05T20:30:21.438Z,54.20
2023-07-05T20:33:32.464Z,54.32
2023-07-05T20:36:36.874Z,54.11
2023-07-05T20:39:39.314Z,54.25
2023-07-05T20:42:43.258Z,53.99
2023-07-05T20:45:45.670Z,54.22
2023-07-05T20:48:48.083Z,54.39
2023-07-05T20:51:53.202Z,54.33
2023-07-05T20:54:55.618Z,54.67
2023-07-05T20:57:59.188Z,54.76
2023-07-05T21:01:01.756Z,54.55
2023-07-05T21:04:04.934Z,54.50
2023-07-05T21:07:07.393Z,54.49
2023-07-05T21:10:10.636Z,54.79
2023-07-05T21:13:21.107Z,54.59
2023-07-05T21:16:23.799Z,54.53
2023-07-05T21:19:26.190Z,55.06
2023-07-05T21:22:28.607Z,54.71
2023-07-05T21:25:32.769Z,54.87
2023-07-05T21:28:35.313Z,55.23
2023-07-05T21:31:37.800Z,54.86
2023-07-05T21:34:40.428Z,55.08
2023-07-05T21:37:43.113Z,55.18
2023-07-05T21:40:46.115Z,54.95
2023-07-05T21:43:48.631Z,55.24
2023-07-05T21:46:52.908Z,55.42
2023-07-05T21:49:55.711Z,55.35
2023-07-05T21:52:58.124Z,55.55
2023-07-05T21:56:02.245Z,55.56
2023-07-05T21:59:05.110Z,55.21
2023-07-05T22:02:07.668Z,55.42
2023-07-05T22:05:10.243Z,55.41
2023-07-05T22:08:12.651Z,55.48
2023-07-05T22:11:15.664Z,55.41
2023-07-05T22:14:18.076Z,55.47
2023-07-05T22:17:22.505Z,55.78
2023-07-05T22:20:26.291Z,55.76
2023-07-05T22:23:28.682Z,55.84
2023-07-05T22:26:31.085Z,56.03
2023-07-05T22:29:33.856Z,55.93
2023-07-05T22:32:36.453Z,55.70
2023-07-05T22:35:38.833Z,55.95
2023-07-05T22:38:41.557Z,55.74
2023-07-05T22:41:44.009Z,55.98
2023-07-05T22:44:46.539Z,55.71
2023-07-05T22:47:49.052Z,55.88
2023-07-05T22:50:51.441Z,56.06
2023-07-05T22:53:53.892Z,56.20
2023-07-05T22:56:58.066Z,55.88
2023-07-05T23:00:00.553Z,56.25
2023-07-05T23:03:03.113Z,55.89
2023-07-05T23:06:10.797Z,56.02
2023-07-05T23:09:13.188Z,56.12
2023-07-05T23:12:18.193Z,56.34
2023-07-05T23:15:23.975Z,56.09
2023-07-05T23:18:27.148Z,56.42
2023-07-05T23:21:29.627Z,56.20
2023-07-05T23:24:32.003Z,56.33
2023-07-05T23:27:34.788Z,56.26
2023-07-05T23:30:37.190Z,56.63
2023-07-05T23:33:40.380Z,56.06
2023-07-05T23:36:43.527Z,56.72
2023-07-05T23:39:46.363Z,56.44
2023-07-05T23:42:48.755Z,56.26
2023-07-05T23:45:51.103Z,56.39
2023-07-05T23:48:54.499Z,56.59
2023-07-05T23:51:57.797Z,56.65
2023-07-05T23:55:00.177Z,56.70
2023-07-05T23:58:05.864Z,56.44
